Time;durP1;ratioP1;P1;durP2;ratioP2;P2;SDS_P1;SDS_P2;PMS_P1;PMS_P2;Temp;Humidity;BMP_temperature;BMP_pressure;BME280_temperature;BME280_humidity;BME280_pressure;Samples;Min_cycle;Max_cycle;Signal;HPM_P1;HPM_P2
2020/12/30 00:02:11;;;;;;;86.75;55.92;;;;;;;1.84;96.02;99210.44;5120453;27;20057;-78
2020/12/30 00:05:15;;;;;;;89.25;57.42;;;;;;;1.89;95.77;99229.50;5133929;27;20050;-78
2020/12/30 00:08:20;;;;;;;87.47;57.95;;;;;;;1.90;95.94;99220.59;5134216;27;20058;-78
2020/12/30 00:11:24;;;;;;;88.72;56.90;;;;;;;1.88;96.08;99221.63;5134309;27;20050;-77
2020/12/30 00:14:27;;;;;;;;;;;;;;;1.93;95.70;99233.59;5133940;27;20405;-77
2020/12/30 00:17:32;;;;;;;90.95;55.55;;;;;;;1.94;95.54;99239.75;5134102;27;19915;-77
2020/12/30 00:20:37;;;;;;;95.38;56.97;;;;;;;1.93;95.70;99230.94;5134350;27;20389;-77
2020/12/30 00:23:41;;;;;;;90.45;56.53;;;;;;;1.93;95.92;99208.94;5131973;27;20062;-77
2020/12/30 00:26:45;;;;;;;88.93;56.63;;;;;;;1.94;95.88;99222.06;5134086;27;20038;-77
2020/12/30 00:29:49;;;;;;;84.05;54.25;;;;;;;2.00;95.80;99210.19;5121028;27;20042;-78
2020/12/30 00:32:54;;;;;;;87.28;54.83;;;;;;;2.08;96.04;99230.81;5133979;27;20050;-77
2020/12/30 00:35:59;;;;;;;86.47;56.13;;;;;;;2.11;95.85;99225.31;5134185;27;20050;-78
2020/12/30 00:39:03;;;;;;;79.38;51.95;;;;;;;2.19;96.00;99226.47;5133184;27;20058;-77
2020/12/30 00:42:08;;;;;;;85.15;55.55;;;;;;;2.16;95.79;99225.81;5133237;27;20398;-77
2020/12/30 00:45:12;;;;;;;82.60;52.25;;;;;;;2.16;95.50;99217.88;5130907;27;20050;-77
2020/12/30 00:48:16;;;;;;;85.82;54.78;;;;;;;2.16;96.08;99221.38;5121005;27;20038;-76
2020/12/30 00:51:21;;;;;;;81.40;52.28;;;;;;;2.16;95.83;99226.69;5132751;27;20054;-77
2020/12/30 00:54:26;;;;;;;85.97;55.55;;;;;;;2.22;95.68;99225.41;5109332;27;20050;-77
2020/12/30 00:57:31;;;;;;;82.25;51.70;;;;;;;2.19;95.58;99225.63;5121677;27;20046;-77
2020/12/30 01:00:35;;;;;;;85.47;53.08;;;;;;;2.13;95.49;99224.25;5123607;27;20045;-76
2020/12/30 01:04:09;;;;;;;78.60;50.28;;;;;;;2.13;95.45;99220.75;5133129;27;20065;-75
2020/12/30 01:07:18;;;;;;;85.28;53.28;;;;;;;2.12;95.47;99225.22;5129493;27;20108;-75
2020/12/30 01:10:23;;;;;;;81.18;52.67;;;;;;;2.14;95.59;99225.09;5132875;27;20050;-77
2020/12/30 01:13:27;;;;;;;86.22;53.80;;;;;;;2.17;95.46;99243.41;5132417;27;20401;-78
2020/12/30 01:16:31;;;;;;;84.22;54.10;;;;;;;2.13;95.44;99249.84;5137017;27;20112;-78
2020/12/30 01:19:35;;;;;;;83.72;55.50;;;;;;;2.06;95.28;99262.69;5133171;27;20047;-79
2020/12/30 01:22:40;;;;;;;84.13;54.55;;;;;;;2.01;95.32;99267.47;5132544;27;20042;-79
2020/12/30 01:25:44;;;;;;;82.15;54.15;;;;;;;1.96;95.48;99265.13;5119767;27;20043;-75
2020/12/30 01:28:49;;;;;;;84.53;55.70;;;;;;;1.93;95.03;99275.94;5129091;27;20046;-78
2020/12/30 01:31:53;;;;;;;82.15;55.05;;;;;;;1.87;95.30;99276.38;5129944;27;20054;-77
2020/12/30 01:34:57;;;;;;;85.32;55.88;;;;;;;1.88;95.26;99277.19;5131591;27;20066;-76
2020/12/30 01:38:02;;;;;;;83.55;54.05;;;;;;;1.91;95.30;99275.19;5132740;27;20193;-79
2020/12/30 01:41:07;;;;;;;81.45;52.95;;;;;;;1.99;95.19;99274.66;5132582;27;20046;-77
2020/12/30 01:44:11;;;;;;;77.50;51.03;;;;;;;1.96;95.08;99269.59;5130740;27;20516;-78
2020/12/30 01:47:17;;;;;;;78.63;53.55;;;;;;;1.99;94.81;99264.09;5131451;28;20043;-79
2020/12/30 01:50:22;;;;;;;78.00;51.75;;;;;;;2.06;94.92;99267.13;5132858;28;20532;-78
2020/12/30 01:53:26;;;;;;;78.28;51.00;;;;;;;2.13;94.87;99271.03;5116628;28;20270;-78
2020/12/30 01:56:33;;;;;;;76.40;50.55;;;;;;;2.12;94.76;99259.63;5132641;28;20055;-78
2020/12/30 01:59:37;;;;;;;71.53;49.85;;;;;;;2.18;94.52;99271.56;5115325;28;20058;-79
2020/12/30 02:02:50;;;;;;;73.57;51.03;;;;;;;2.22;94.42;99276.53;5133035;27;20043;-78
2020/12/30 02:05:57;;;;;;;73.53;49.80;;;;;;;2.16;94.34;99281.41;5131772;28;20398;-76
2020/12/30 02:09:03;;;;;;;73.90;50.60;;;;;;;2.15;94.66;99280.56;5128723;28;20050;-76
2020/12/30 02:12:09;;;;;;;78.60;51.65;;;;;;;2.13;94.42;99273.69;5132334;28;20058;-78
2020/12/30 02:15:31;;;;;;;71.22;50.75;;;;;;;2.14;94.33;99272.75;5132253;27;20042;-78
2020/12/30 02:18:35;;;;;;;79.03;51.55;;;;;;;2.11;94.57;99275.59;5130348;28;20050;-77
2020/12/30 02:21:40;;;;;;;72.57;50.88;;;;;;;2.21;94.66;99284.59;5111082;28;20055;-78
2020/12/30 02:24:45;;;;;;;78.72;49.58;;;;;;;2.20;94.48;99283.72;5107468;28;20055;-78
2020/12/30 02:27:49;;;;;;;73.97;50.95;;;;;;;2.26;94.63;99288.59;5091614;28;20077;-78
2020/12/30 02:30:54;;;;;;;77.90;50.92;;;;;;;2.23;94.63;99277.38;5105079;28;20397;-78
2020/12/30 02:33:58;;;;;;;72.95;49.47;;;;;;;2.27;94.69;99284.16;5096041;28;20047;-78
2020/12/30 02:37:03;;;;;;;76.20;49.80;;;;;;;2.17;94.30;99283.13;5091615;28;20051;-78
2020/12/30 02:40:08;;;;;;;69.63;47.78;;;;;;;2.16;94.47;99290.22;5101568;28;21646;-78
2020/12/30 02:43:14;;;;;;;75.35;51.42;;;;;;;2.16;94.70;99299.94;5102910;28;20413;-76
2020/12/30 02:46:20;;;;;;;76.43;49.97;;;;;;;2.17;94.41;99296.34;5096805;28;20056;-78
2020/12/30 02:49:24;;;;;;;77.95;51.45;;;;;;;2.16;94.35;99286.72;5109297;28;20051;-78
2020/12/30 02:52:29;;;;;;;71.47;47.13;;;;;;;2.20;94.53;99285.56;5091340;28;20055;-78
2020/12/30 02:55:33;;;;;;;69.07;48.85;;;;;;;2.17;94.09;99272.53;5105271;28;20406;-77
2020/12/30 02:58:40;;;;;;;73.57;49.00;;;;;;;2.19;94.27;99271.47;5103887;28;20437;-78
2020/12/30 03:01:44;;;;;;;75.03;50.50;;;;;;;2.13;94.57;99276.31;5097785;27;20051;-78
2020/12/30 03:04:49;;;;;;;72.38;49.65;;;;;;;2.17;94.13;99278.69;5113372;27;20054;-78
2020/12/30 03:07:53;;;;;;;70.65;48.10;;;;;;;2.21;94.22;99276.63;5095098;28;20134;-78
2020/12/30 03:10:58;;;;;;;71.28;47.83;;;;;;;2.18;94.13;99264.47;5094985;28;20047;-77
2020/12/30 03:14:02;;;;;;;72.80;49.75;;;;;;;2.22;94.10;99278.34;5109124;28;20058;-78
2020/12/30 03:17:07;;;;;;;69.72;48.30;;;;;;;2.22;93.79;99259.81;5109836;28;20051;-77
2020/12/30 03:20:11;;;;;;;68.75;48.45;;;;;;;2.21;93.84;99260.75;5101998;27;20051;-77
2020/12/30 03:23:15;;;;;;;68.82;48.15;;;;;;;2.03;93.79;99262.91;5135578;27;20050;-76
2020/12/30 03:26:20;;;;;;;66.75;46.88;;;;;;;1.86;93.76;99264.09;5135027;27;20055;-78
2020/12/30 03:29:24;;;;;;;68.07;47.65;;;;;;;1.73;93.90;99257.09;5134477;27;20042;-77
2020/12/30 03:32:28;;;;;;;73.38;50.17;;;;;;;1.58;94.43;99248.44;5141468;27;20046;-78
2020/12/30 03:35:33;;;;;;;75.97;49.22;;;;;;;1.58;94.63;99244.97;5132072;27;20057;-77
2020/12/30 03:38:37;;;;;;;71.55;48.50;;;;;;;1.56;94.84;99255.63;5133710;27;20070;-77
2020/12/30 03:41:42;;;;;;;71.03;47.92;;;;;;;1.53;94.96;99268.22;5122185;27;20389;-77
2020/12/30 03:44:46;;;;;;;69.93;48.65;;;;;;;1.46;94.97;99270.41;5125467;27;20045;-77
2020/12/30 03:47:50;;;;;;;68.88;47.60;;;;;;;1.40;95.03;99268.22;5132738;27;20046;-76
2020/12/30 03:50:55;;;;;;;73.47;49.65;;;;;;;1.33;95.04;99272.22;5135069;27;20050;-78
2020/12/30 03:53:59;;;;;;;73.78;49.80;;;;;;;1.25;95.28;99277.16;5134786;27;20058;-78
2020/12/30 03:57:03;;;;;;;76.22;50.92;;;;;;;1.17;95.32;99272.41;5121643;27;20054;-77
2020/12/30 04:00:08;;;;;;;77.57;50.58;;;;;;;1.06;95.43;99266.13;5135004;27;20401;-75
2020/12/30 04:03:17;;;;;;;72.50;49.55;;;;;;;1.05;95.77;99270.56;5134334;27;20508;-78
2020/12/30 04:06:21;;;;;;;70.32;47.40;;;;;;;1.12;95.79;99282.44;5134124;27;20421;-79
2020/12/30 04:09:25;;;;;;;71.07;47.78;;;;;;;1.10;95.46;99279.03;5131864;27;20505;-78
2020/12/30 04:12:30;;;;;;;73.03;49.92;;;;;;;1.05;95.98;99272.38;5134409;27;20050;-77
2020/12/30 04:15:35;;;;;;;72.57;48.05;;;;;;;1.06;96.14;99279.34;5134496;27;20046;-77
2020/12/30 04:18:39;;;;;;;68.95;45.78;;;;;;;1.07;96.05;99266.03;5131062;27;20046;-76
2020/12/30 04:21:44;;;;;;;64.63;44.20;;;;;;;1.12;95.85;99273.66;5134342;27;20050;-76
2020/12/30 04:24:48;;;;;;;65.72;44.10;;;;;;;1.04;95.98;99278.59;5136798;27;20049;-75
2020/12/30 04:27:53;;;;;;;72.88;46.60;;;;;;;0.99;96.31;99264.81;5129684;27;20038;-77
2020/12/30 04:30:57;;;;;;;72.82;46.35;;;;;;;1.01;96.23;99262.97;5134093;27;20050;-76
2020/12/30 04:34:02;;;;;;;71.57;45.75;;;;;;;1.03;96.31;99271.63;5121464;27;20046;-77
2020/12/30 04:37:06;;;;;;;73.10;46.58;;;;;;;1.04;96.43;99281.22;5120390;27;20066;-78
2020/12/30 04:40:11;;;;;;;68.68;47.63;;;;;;;1.11;96.66;99274.63;5133974;27;20046;-78
2020/12/30 04:43:16;;;;;;;65.53;45.45;;;;;;;1.16;96.40;99283.91;5133770;27;20054;-76
2020/12/30 04:46:21;;;;;;;64.05;43.67;;;;;;;1.23;96.30;99290.47;5141023;27;20062;-76
2020/12/30 04:49:25;;;;;;;61.60;44.13;;;;;;;1.25;96.35;99277.16;5128760;27;20413;-76
2020/12/30 04:52:30;;;;;;;64.78;45.30;;;;;;;1.27;96.19;99277.91;5130826;27;20054;-76
2020/12/30 04:55:35;;;;;;;64.28;44.47;;;;;;;1.24;95.80;99286.03;5131760;27;20054;-77
2020/12/30 04:58:40;;;;;;;65.88;46.20;;;;;;;1.23;95.67;99292.28;5132504;27;20092;-76
2020/12/30 05:02:08;;;;;;;66.88;44.75;;;;;;;1.23;95.72;99287.81;5133661;27;20054;-76
2020/12/30 05:05:13;;;;;;;66.03;43.95;;;;;;;1.27;95.76;99291.97;5129292;27;20054;-77
2020/12/30 05:08:17;;;;;;;64.57;43.85;;;;;;;1.31;95.44;99297.88;5120758;27;20078;-77
2020/12/30 05:11:22;;;;;;;60.42;41.55;;;;;;;1.35;95.47;99293.25;5133161;27;20504;-78
2020/12/30 05:14:27;;;;;;;60.78;41.72;;;;;;;1.40;95.45;99302.56;5132643;27;20054;-77
2020/12/30 05:17:33;;;;;;;64.13;43.80;;;;;;;1.40;95.29;99293.78;5133337;27;20500;-77
2020/12/30 05:20:38;;;;;;;59.50;41.03;;;;;;;1.42;95.41;99305.09;5130026;27;20058;-77
2020/12/30 05:23:43;;;;;;;54.70;38.45;;;;;;;1.40;95.32;99301.72;5119680;27;20112;-77
2020/12/30 05:26:48;;;;;;;59.15;39.83;;;;;;;1.42;95.18;99305.97;5133254;27;20043;-77
2020/12/30 05:29:53;;;;;;;59.88;40.25;;;;;;;1.52;94.73;99311.47;5119016;27;20054;-77
2020/12/30 05:32:58;;;;;;;60.08;39.95;;;;;;;1.54;94.92;99301.63;5132882;27;20046;-77
2020/12/30 05:36:02;;;;;;;59.85;40.88;;;;;;;1.56;94.81;99312.94;5120051;28;20042;-76
2020/12/30 05:39:07;;;;;;;59.65;40.25;;;;;;;1.56;94.86;99327.03;5132322;27;20046;-77
2020/12/30 05:42:14;;;;;;;57.10;39.63;;;;;;;1.56;94.77;99340.25;5132776;27;20050;-78
2020/12/30 05:45:21;;;;;;;56.40;39.05;;;;;;;1.52;94.79;99327.34;5132597;28;20051;-78
2020/12/30 05:48:25;;;;;;;56.88;39.50;;;;;;;1.46;94.78;99318.00;5132849;28;20058;-78
2020/12/30 05:51:29;;;;;;;53.95;36.35;;;;;;;1.49;94.79;99322.25;5132388;28;20054;-79
2020/12/30 05:54:33;;;;;;;54.72;38.05;;;;;;;1.47;94.62;99321.50;5132669;28;20409;-78
2020/12/30 05:57:38;;;;;;;55.85;37.25;;;;;;;1.43;94.68;99328.81;5132431;28;20061;-77
2020/12/30 06:00:44;;;;;;;52.65;36.03;;;;;;;1.39;94.77;99344.97;5132493;28;20054;-77
2020/12/30 06:03:48;;;;;;;115.18;81.80;;;;;;;1.33;94.95;99341.78;5130717;28;20050;-78
2020/12/30 06:06:53;;;;;;;216.90;141.43;;;;;;;1.31;95.12;99356.88;5132633;28;20054;-77
2020/12/30 06:09:57;;;;;;;57.40;38.45;;;;;;;1.22;95.26;99351.38;5128055;28;20047;-78
2020/12/30 06:13:02;;;;;;;54.35;36.70;;;;;;;1.27;95.26;99359.84;5132517;28;20054;-78
2020/12/30 06:16:14;;;;;;;56.08;37.35;;;;;;;1.27;95.13;99363.34;5132846;28;20046;-78
2020/12/30 06:19:18;;;;;;;58.63;39.50;;;;;;;1.28;95.38;99364.19;5132440;28;20051;-77
2020/12/30 06:22:24;;;;;;;60.05;37.83;;;;;;;1.28;95.36;99343.88;5131914;28;20058;-77
2020/12/30 06:25:33;;;;;;;51.95;36.53;;;;;;;1.39;95.63;99353.75;5108122;28;20050;-77
2020/12/30 06:28:37;;;;;;;55.55;37.35;;;;;;;1.41;95.61;99333.34;5128214;28;20050;-76
2020/12/30 06:31:44;;;;;;;51.83;35.20;;;;;;;1.46;94.96;99349.75;5117155;27;20050;-78
2020/12/30 06:34:50;;;;;;;57.00;35.90;;;;;;;1.49;95.22;99348.69;5123538;27;20042;-78
2020/12/30 06:37:55;;;;;;;54.38;36.85;;;;;;;1.52;95.01;99353.78;5131353;27;20046;-78
2020/12/30 06:41:01;;;;;;;54.83;36.45;;;;;;;1.54;94.76;99343.94;5123519;27;20050;-77
2020/12/30 06:44:05;;;;;;;51.63;36.00;;;;;;;1.55;94.89;99354.44;5136276;27;20105;-76
2020/12/30 06:47:11;;;;;;;52.63;36.33;;;;;;;1.58;94.37;99342.81;5123177;27;20393;-78
2020/12/30 06:50:15;;;;;;;54.65;37.45;;;;;;;1.56;94.52;99366.69;5136175;27;20504;-79
2020/12/30 06:53:27;;;;;;;55.95;37.25;;;;;;;1.47;94.55;99384.97;5130538;27;20070;-77
2020/12/30 06:56:38;;;;;;;60.30;39.30;;;;;;;1.40;94.87;99386.31;5143965;27;20097;-76
2020/12/30 06:59:43;;;;;;;61.70;41.97;;;;;;;1.41;95.12;99386.22;5158458;27;20045;-77
2020/12/30 07:03:12;;;;;;;61.25;41.35;;;;;;;1.57;95.83;99397.47;5125488;27;20046;-76
2020/12/30 07:06:31;;;;;;;56.80;38.45;;;;;;;1.76;95.95;99405.88;5112980;28;20052;-78
2020/12/30 07:09:38;;;;;;;57.33;39.83;;;;;;;1.87;95.24;99410.47;5102880;28;20509;-77
2020/12/30 07:12:43;;;;;;;46.78;35.10;;;;;;;1.79;94.65;99400.38;5115458;28;20052;-78
2020/12/30 07:15:47;;;;;;;51.95;35.80;;;;;;;1.77;94.28;99404.09;5102815;28;20054;-82
2020/12/30 07:18:51;;;;;;;55.22;37.35;;;;;;;1.77;93.89;99422.59;5115551;28;20051;-82
2020/12/30 07:22:00;;;;;;;51.70;38.17;;;;;;;1.71;93.68;99431.78;5116565;28;20055;-81
2020/12/30 07:25:04;;;;;;;52.83;37.20;;;;;;;1.67;94.21;99437.38;5117275;28;20141;-81
2020/12/30 07:28:08;;;;;;;49.45;35.22;;;;;;;1.71;94.00;99431.78;5116986;28;20417;-83
2020/12/30 07:31:13;;;;;;;53.70;36.97;;;;;;;1.77;94.19;99415.53;5116907;28;20054;-83
2020/12/30 07:34:25;;;;;;;62.80;39.53;;;;;;;2.05;95.53;99403.06;5116802;28;20054;-82
2020/12/30 07:37:29;;;;;;;49.83;36.53;;;;;;;2.07;95.58;99393.22;5116247;28;20051;-83
2020/12/30 07:40:34;;;;;;;45.53;34.30;;;;;;;2.05;95.04;99395.94;5116724;28;20050;-84
2020/12/30 07:43:49;;;;;;;46.88;32.53;;;;;;;2.02;94.22;99406.78;5103883;28;20059;-83
2020/12/30 07:47:05;;;;;;;48.13;33.10;;;;;;;1.98;94.23;99418.50;5116119;28;20050;-83
2020/12/30 07:50:09;;;;;;;47.00;33.47;;;;;;;1.83;93.77;99415.09;5116221;28;20047;-77
2020/12/30 07:53:17;;;;;;;46.67;33.13;;;;;;;1.83;93.71;99423.03;5116434;28;20497;-88
2020/12/30 07:56:26;;;;;;;45.78;32.63;;;;;;;1.82;93.51;99442.50;5116377;28;20420;-86
2020/12/30 07:59:31;;;;;;;49.67;32.50;;;;;;;1.81;93.92;99451.38;5118433;27;20054;-82
2020/12/30 08:02:35;;;;;;;49.20;32.22;;;;;;;1.85;93.64;99452.03;5136251;27;20501;-81
2020/12/30 08:05:45;;;;;;;45.47;31.88;;;;;;;1.87;93.51;99451.00;5123636;27;20074;-80
2020/12/30 08:08:49;;;;;;;44.08;30.38;;;;;;;1.92;93.52;99450.69;5136987;27;20046;-80
2020/12/30 08:11:59;;;;;;;46.53;31.55;;;;;;;1.93;93.41;99429.41;5112394;27;20054;-81
2020/12/30 08:15:04;;;;;;;42.08;30.83;;;;;;;2.06;93.10;99426.78;5136488;27;20047;-81
2020/12/30 08:18:08;;;;;;;41.83;29.33;;;;;;;2.08;93.02;99442.53;5136263;27;20495;-81
2020/12/30 08:21:14;;;;;;;40.58;29.67;;;;;;;2.16;93.09;99456.09;5135790;27;20058;-79
2020/12/30 08:24:18;;;;;;;38.17;28.65;;;;;;;2.23;92.67;99449.44;5123359;27;20054;-80
2020/12/30 08:27:24;;;;;;;37.72;28.15;;;;;;;2.28;92.64;99456.13;5123425;27;20496;-78
2020/12/30 08:30:32;;;;;;;39.00;28.42;;;;;;;2.29;92.29;99463.13;5136188;27;20381;-78
2020/12/30 08:33:41;;;;;;;43.85;31.17;;;;;;;2.30;92.63;99459.50;5136172;27;20046;-76
2020/12/30 08:36:51;;;;;;;45.35;31.92;;;;;;;2.29;91.88;99473.72;5136044;27;20484;-79
2020/12/30 08:40:04;;;;;;;43.72;30.80;;;;;;;2.32;91.76;99491.19;5136088;27;20528;-79
2020/12/30 08:43:11;;;;;;;45.38;31.98;;;;;;;2.31;92.05;99486.84;5131741;27;20054;-78
2020/12/30 08:46:25;;;;;;;44.25;31.13;;;;;;;2.38;91.83;99485.47;5131268;27;20054;-76
2020/12/30 08:49:31;;;;;;;41.42;29.42;;;;;;;2.43;91.95;99480.69;5135928;27;20047;-77
2020/12/30 08:52:42;;;;;;;42.47;30.77;;;;;;;2.42;91.88;99479.03;5120480;27;20543;-78
2020/12/30 08:55:53;;;;;;;47.50;31.65;;;;;;;2.37;91.80;99486.44;5135072;27;20043;-75
2020/12/30 08:58:58;;;;;;;42.25;30.60;;;;;;;2.42;91.77;99481.69;5122322;27;20396;-77
2020/12/30 09:02:13;;;;;;;42.97;30.75;;;;;;;2.47;91.78;99482.19;5135377;27;20070;-78
2020/12/30 09:05:31;;;;;;;40.70;30.02;;;;;;;2.59;91.55;99487.47;5135520;27;20049;-77
2020/12/30 09:08:35;;;;;;;42.92;30.40;;;;;;;2.68;91.69;99486.00;5135106;27;20050;-77
2020/12/30 09:11:50;;;;;;;41.60;30.10;;;;;;;2.77;91.36;99484.50;5135709;27;20042;-77
2020/12/30 09:14:55;;;;;;;39.97;29.23;;;;;;;2.88;91.20;99496.06;5136589;27;20054;-78
2020/12/30 09:17:59;;;;;;;41.45;29.98;;;;;;;2.97;90.66;99510.47;5122195;27;20050;-76
2020/12/30 09:21:18;;;;;;;38.83;29.88;;;;;;;3.06;90.45;99521.25;5134776;27;20054;-76
2020/12/30 09:24:23;;;;;;;42.78;29.60;;;;;;;3.05;89.84;99521.38;5121686;27;20058;-78
2020/12/30 09:27:35;;;;;;;41.53;31.50;;;;;;;3.07;89.99;99519.47;5133981;27;20074;-77
2020/12/30 09:30:40;;;;;;;43.45;30.25;;;;;;;3.15;90.18;99522.44;5134690;27;20046;-77
2020/12/30 09:33:45;;;;;;;41.47;30.05;;;;;;;3.23;89.76;99522.75;5132201;27;20058;-77
2020/12/30 09:36:55;;;;;;;40.25;29.33;;;;;;;3.31;89.55;99527.50;5131908;27;20385;-78
2020/12/30 09:40:10;;;;;;;38.50;29.55;;;;;;;3.28;89.55;99528.56;5134125;27;20559;-77
2020/12/30 09:43:17;;;;;;;38.90;28.55;;;;;;;3.22;89.68;99531.66;5134182;27;20042;-79
2020/12/30 09:46:22;;;;;;;38.63;28.95;;;;;;;3.27;89.80;99527.72;5133685;28;20058;-78
2020/12/30 09:49:27;;;;;;;37.25;29.58;;;;;;;3.32;89.43;99529.19;5134039;28;20046;-76
2020/12/30 09:52:43;;;;;;;37.13;29.95;;;;;;;3.21;89.49;99528.13;5131712;28;20046;-77
2020/12/30 09:55:53;;;;;;;40.65;30.30;;;;;;;3.21;89.85;99521.97;5133436;28;20054;-77
2020/12/30 09:58:57;;;;;;;36.80;27.67;;;;;;;3.22;89.70;99521.91;5134017;28;20500;-77
2020/12/30 10:02:02;;;;;;;37.80;29.15;;;;;;;3.32;89.89;99531.84;5121598;28;20137;-78
2020/12/30 10:05:06;;;;;;;46.85;34.63;;;;;;;3.26;89.68;99533.13;5134612;28;20046;-77
2020/12/30 10:08:10;;;;;;;45.03;32.60;;;;;;;3.08;89.95;99521.19;5137344;27;20046;-77
2020/12/30 10:11:19;;;;;;;39.88;31.67;;;;;;;3.03;90.37;99518.00;5126028;27;20054;-77
2020/12/30 10:14:23;;;;;;;39.50;31.17;;;;;;;3.06;90.52;99523.09;5138352;27;20133;-79
2020/12/30 10:17:27;;;;;;;44.72;32.80;;;;;;;3.05;90.60;99521.38;5138217;27;20042;-78
2020/12/30 10:20:32;;;;;;;41.13;32.05;;;;;;;3.01;90.58;99515.44;5137946;27;20046;-77
2020/12/30 10:23:36;;;;;;;41.50;31.92;;;;;;;3.13;90.79;99519.06;5137977;27;20046;-77
2020/12/30 10:26:40;;;;;;;47.08;33.97;;;;;;;3.14;90.80;99516.28;5137546;27;20054;-76
2020/12/30 10:29:57;;;;;;;;;;;;;;;;;;;;;
2020/12/30 10:33:10;;;;;;;42.30;33.60;;;;;;;3.29;91.08;99509.88;5115871;27;20046;-77
2020/12/30 10:36:14;;;;;;;41.95;31.13;;;;;;;3.32;91.03;99511.47;5105447;28;20051;-78
2020/12/30 10:39:19;;;;;;;42.42;32.30;;;;;;;3.37;90.74;99509.34;5105357;28;20381;-75
2020/12/30 10:42:23;;;;;;;41.10;31.98;;;;;;;3.43;90.98;99506.25;5117244;28;20050;-78
2020/12/30 10:45:28;;;;;;;45.03;33.83;;;;;;;3.51;90.71;99503.03;5105074;28;20046;-78
2020/12/30 10:48:32;;;;;;;42.97;33.60;;;;;;;3.54;91.03;99510.75;5117695;28;20050;-77
2020/12/30 10:51:39;;;;;;;43.13;34.20;;;;;;;3.52;91.24;99502.94;5117619;28;20059;-78
2020/12/30 10:54:43;;;;;;;43.90;35.17;;;;;;;3.47;91.08;99507.72;5117009;28;20058;-77
2020/12/30 10:57:48;;;;;;;49.33;37.55;;;;;;;3.37;91.69;99501.38;5117515;28;20051;-77
2020/12/30 11:00:53;;;;;;;44.72;34.97;;;;;;;3.37;91.85;99505.84;5116743;27;20410;-78
2020/12/30 11:03:57;;;;;;;47.10;36.03;;;;;;;3.39;92.11;99509.22;5117474;28;20051;-79
2020/12/30 11:07:03;;;;;;;48.95;37.47;;;;;;;3.29;92.21;99509.03;5117361;28;20050;-78
2020/12/30 11:10:08;;;;;;;48.25;36.42;;;;;;;3.28;92.58;99505.53;5123635;27;20046;-77
2020/12/30 11:13:13;;;;;;;47.92;37.30;;;;;;;3.28;93.12;99502.88;5131319;27;20042;-77
2020/12/30 11:16:17;;;;;;;52.40;38.15;;;;;;;3.29;93.40;99498.44;5135305;27;20050;-77
2020/12/30 11:19:22;;;;;;;49.63;36.55;;;;;;;3.44;93.06;99513.25;5133061;27;20050;-77
2020/12/30 11:22:26;;;;;;;51.60;38.58;;;;;;;3.40;93.46;99506.47;5137063;27;20074;-77
2020/12/30 11:25:33;;;;;;;52.20;39.78;;;;;;;3.46;93.56;99513.13;5137326;27;20053;-76
2020/12/30 11:28:39;;;;;;;64.15;46.78;;;;;;;3.37;93.65;99506.69;5113239;27;20062;-78
2020/12/30 11:31:43;;;;;;;58.28;42.83;;;;;;;3.37;93.81;99508.50;5136945;27;20058;-76
2020/12/30 11:34:49;;;;;;;53.15;40.47;;;;;;;3.33;94.27;99504.38;5137243;27;20042;-77
2020/12/30 11:37:53;;;;;;;48.83;37.28;;;;;;;3.27;94.01;99514.47;5136593;27;20046;-77
2020/12/30 11:40:57;;;;;;;48.08;39.47;;;;;;;3.28;94.54;99510.00;5136403;27;20066;-78
2020/12/30 11:44:02;;;;;;;50.70;37.17;;;;;;;3.27;94.72;99503.00;5136432;27;20047;-77
2020/12/30 11:47:07;;;;;;;49.00;37.78;;;;;;;3.31;94.82;99514.25;5124072;27;20393;-77
2020/12/30 11:50:12;;;;;;;48.13;37.42;;;;;;;3.25;95.06;99505.78;5146623;27;20045;-76
2020/12/30 11:53:16;;;;;;;49.63;37.83;;;;;;;3.26;95.04;99502.16;5125807;27;20736;-76
2020/12/30 11:56:22;;;;;;;49.85;36.30;;;;;;;3.24;95.08;99497.91;5145838;27;20397;-76
2020/12/30 11:59:26;;;;;;;46.38;34.78;;;;;;;3.42;95.42;99504.56;5136626;27;20050;-75
2020/12/30 12:02:33;;;;;;;46.17;35.58;;;;;;;3.43;95.31;99494.78;5147744;27;20041;-75
2020/12/30 12:05:38;;;;;;;44.80;34.67;;;;;;;3.45;94.93;99501.69;5132518;27;20046;-77
2020/12/30 12:08:42;;;;;;;48.53;37.45;;;;;;;3.43;95.29;99490.34;5132832;27;20051;-76
2020/12/30 12:11:47;;;;;;;49.28;36.28;;;;;;;3.49;94.99;99499.63;5115918;28;20051;-76
2020/12/30 12:14:51;;;;;;;48.30;36.67;;;;;;;3.50;94.92;99494.25;5130685;27;20058;-76
2020/12/30 12:17:56;;;;;;;51.10;36.47;;;;;;;3.56;94.95;99485.81;5121329;27;20050;-77
2020/12/30 12:21:02;;;;;;;49.80;36.65;;;;;;;3.58;94.92;99488.38;5136206;27;20124;-76
2020/12/30 12:24:07;;;;;;;50.97;37.40;;;;;;;3.59;94.90;99490.06;5135844;27;20062;-78
2020/12/30 12:27:11;;;;;;;51.00;36.00;;;;;;;3.65;94.84;99494.94;5136616;27;20046;-75
2020/12/30 12:30:17;;;;;;;50.30;36.92;;;;;;;3.75;94.82;99498.59;5133374;27;20046;-76
2020/12/30 12:33:21;;;;;;;49.83;36.25;;;;;;;3.77;94.72;99488.72;5135214;27;20108;-77
2020/12/30 12:36:25;;;;;;;48.00;34.30;;;;;;;3.76;94.38;99497.63;5135452;27;20054;-76
2020/12/30 12:39:29;;;;;;;49.47;36.35;;;;;;;3.80;94.44;99477.88;5135597;27;20401;-78
2020/12/30 12:42:34;;;;;;;45.78;33.28;;;;;;;3.91;94.40;99485.88;5134426;27;20080;-76
2020/12/30 12:45:38;;;;;;;45.00;33.35;;;;;;;4.01;94.40;99488.69;5135625;27;20066;-78
2020/12/30 12:48:42;;;;;;;;;;;;;;;4.04;94.23;99494.63;5135681;27;20516;-77
2020/12/30 12:51:48;;;;;;;49.45;36.50;;;;;;;4.03;93.83;99477.00;5117373;27;19916;-78
2020/12/30 12:54:52;;;;;;;53.78;36.65;;;;;;;4.04;93.44;99485.81;5114735;28;20055;-77
2020/12/30 12:57:56;;;;;;;49.38;35.97;;;;;;;4.07;93.40;99485.59;5119978;27;20070;-82
2020/12/30 13:01:01;;;;;;;47.22;33.92;;;;;;;4.14;93.02;99492.13;5135317;27;20438;-78
2020/12/30 13:04:05;;;;;;;46.65;35.03;;;;;;;4.06;93.48;99483.88;5102136;28;20055;-76
2020/12/30 13:07:09;;;;;;;;;;;;;;;4.04;93.10;99494.63;5115140;28;20055;-76
2020/12/30 13:10:13;;;;;;;44.70;32.38;;;;;;;4.05;93.10;99485.69;5114406;28;19916;-77
2020/12/30 13:13:17;;;;;;;42.47;32.05;;;;;;;4.14;93.04;99494.78;5114551;28;20501;-79
2020/12/30 13:16:22;;;;;;;42.60;31.38;;;;;;;4.18;93.06;99488.28;5111460;27;20058;-77
2020/12/30 13:19:26;;;;;;;44.72;33.17;;;;;;;4.24;92.41;99499.31;5146410;27;20046;-77
2020/12/30 13:22:30;;;;;;;47.58;32.50;;;;;;;4.25;92.51;99495.66;5121708;27;20042;-76
2020/12/30 13:25:34;;;;;;;49.15;34.60;;;;;;;4.25;92.07;99494.81;5121885;27;20046;-77
2020/12/30 13:28:38;;;;;;;51.83;37.58;;;;;;;4.27;92.58;99491.06;5131211;27;20385;-76
2020/12/30 13:31:49;;;;;;;64.85;46.03;;;;;;;4.23;92.87;99489.63;5135179;27;20038;-77
2020/12/30 13:34:53;;;;;;;66.97;46.80;;;;;;;4.29;92.72;99499.81;5135331;27;20039;-75
2020/12/30 13:37:58;;;;;;;62.10;45.92;;;;;;;4.33;93.03;99498.59;5142653;27;20041;-78
2020/12/30 13:41:02;;;;;;;62.35;45.95;;;;;;;4.31;93.11;99500.53;5131456;27;20042;-77
2020/12/30 13:44:07;;;;;;;66.85;47.22;;;;;;;4.34;92.93;99494.97;5129940;27;20058;-78
2020/12/30 13:47:11;;;;;;;61.20;43.97;;;;;;;4.35;92.98;99494.00;5133609;28;20061;-77
2020/12/30 13:50:15;;;;;;;66.50;45.17;;;;;;;4.36;92.96;99497.50;5132451;28;20046;-78
2020/12/30 13:53:21;;;;;;;59.97;44.10;;;;;;;4.35;93.09;99498.47;5133429;28;20050;-77
2020/12/30 13:56:27;;;;;;;65.55;45.08;;;;;;;4.38;93.10;99495.56;5120599;28;20050;-78
2020/12/30 13:59:32;;;;;;;55.92;42.65;;;;;;;4.42;93.09;99503.19;5118768;27;20583;-78
2020/12/30 14:02:37;;;;;;;53.17;39.15;;;;;;;4.41;93.05;99505.97;5121992;27;20053;-78
2020/12/30 14:05:41;;;;;;;47.33;37.55;;;;;;;4.44;93.09;99511.88;5120844;28;20058;-79
2020/12/30 14:08:45;;;;;;;50.67;36.22;;;;;;;4.44;93.09;99511.88;5133944;28;20051;-76
2020/12/30 14:11:50;;;;;;;50.67;36.80;;;;;;;4.51;93.01;99520.25;5134072;28;20054;-78
2020/12/30 14:14:54;;;;;;;49.17;36.72;;;;;;;4.47;92.97;99522.28;5134160;28;20050;-78
2020/12/30 14:17:58;;;;;;;49.55;37.13;;;;;;;4.39;92.96;99510.56;5133090;27;20054;-78
2020/12/30 14:21:03;;;;;;;44.03;32.55;;;;;;;4.37;92.75;99525.78;5132728;28;20055;-78
2020/12/30 14:24:07;;;;;;;42.53;32.28;;;;;;;4.32;92.43;99528.75;5138484;27;20507;-79
2020/12/30 14:27:11;;;;;;;43.58;32.40;;;;;;;4.26;91.98;99523.06;5144591;27;20401;-79